Time;durP1;ratioP1;P1;durP2;ratioP2;P2;SDS_P1;SDS_P2;PMS_P1;PMS_P2;Temp;Humidity;BMP_temperature;BMP_pressure;BME280_temperature;BME280_humidity;BME280_pressure;Samples;Min_cycle;Max_cycle;Signal;HPM_P1;HPM_P2
2022/09/22 00:01:04;;;;;;;12.65;2.03;;;17.80;99.90;;;;;;5032972;28;20194;-71
2022/09/22 00:03:36;;;;;;;13.35;2.08;;;17.90;99.90;;;;;;5032030;28;20194;-72
2022/09/22 00:06:08;;;;;;;16.25;2.30;;;17.90;99.90;;;;;;5030583;28;20235;-73
2022/09/22 00:08:41;;;;;;;14.88;2.30;;;17.90;99.90;;;;;;5033375;28;20201;-67
2022/09/22 00:11:15;;;;;;;13.23;1.88;;;17.90;99.90;;;;;;5028650;28;20204;-67
2022/09/22 00:13:48;;;;;;;14.38;1.98;;;17.90;99.90;;;;;;5023939;28;20186;-67
2022/09/22 00:16:23;;;;;;;9.23;1.60;;;17.80;99.90;;;;;;5034088;28;20214;-66
2022/09/22 00:18:54;;;;;;;15.93;1.77;;;17.80;99.90;;;;;;5035051;28;21960;-67
2022/09/22 00:21:26;;;;;;;13.27;1.63;;;17.90;99.90;;;;;;5036070;28;20190;-67
2022/09/22 00:23:57;;;;;;;15.25;2.00;;;18.10;99.90;;;;;;5034738;28;20198;-67
2022/09/22 00:26:28;;;;;;;21.67;2.63;;;18.40;99.90;;;;;;5033546;28;20198;-74
2022/09/22 00:29:00;;;;;;;14.35;1.90;;;18.60;99.90;;;;;;5035036;28;20281;-72
2022/09/22 00:31:33;;;;;;;14.57;2.10;;;18.80;99.90;;;;;;5031989;28;20203;-75
2022/09/22 00:34:04;;;;;;;11.13;1.85;;;19.00;99.90;;;;;;5036435;28;20648;-73
2022/09/22 00:36:35;;;;;;;12.75;1.80;;;19.00;99.90;;;;;;5032861;28;20249;-74
2022/09/22 00:39:06;;;;;;;8.55;1.38;;;19.30;99.90;;;;;;5034910;28;20217;-74
2022/09/22 00:41:39;;;;;;;12.68;1.73;;;19.50;99.90;;;;;;5043307;28;20617;-73
2022/09/22 00:44:35;;;;;;;10.32;1.50;;;19.60;99.90;;;;;;5032839;28;20194;-71
2022/09/22 00:47:22;;;;;;;14.00;1.63;;;19.70;99.90;;;;;;5030291;28;20194;-73
2022/09/22 00:49:55;;;;;;;10.15;1.65;;;19.50;99.90;;;;;;5038684;28;20556;-74
2022/09/22 00:52:29;;;;;;;16.38;1.70;;;19.40;99.90;;;;;;5034691;28;20202;-73
2022/09/22 00:55:03;;;;;;;14.38;1.73;;;19.30;99.90;;;;;;5033186;28;20201;-69
2022/09/22 00:57:36;;;;;;;9.52;1.60;;;19.30;99.90;;;;;;5030912;28;20203;-75
2022/09/22 01:00:10;;;;;;;11.15;1.55;;;19.40;99.90;;;;;;5035240;28;20190;-72
2022/09/22 01:02:43;;;;;;;11.30;1.70;;;19.40;99.90;;;;;;5034613;28;20714;-73
2022/09/22 01:05:14;;;;;;;16.90;1.73;;;19.30;99.90;;;;;;5035904;28;20212;-75
2022/09/22 01:07:47;;;;;;;12.98;1.92;;;19.30;99.90;;;;;;5030354;28;20194;-75
2022/09/22 01:10:18;;;;;;;14.52;1.73;;;19.30;99.90;;;;;;5037298;28;20190;-74
2022/09/22 01:13:09;;;;;;;11.32;1.70;;;19.30;99.90;;;;;;5032653;28;20197;-75
2022/09/22 01:15:47;;;;;;;11.52;1.60;;;19.20;99.90;;;;;;5030998;28;20221;-72
2022/09/22 01:18:25;;;;;;;9.65;1.52;;;19.10;99.90;;;;;;5028767;28;20202;-72
2022/09/22 01:21:21;;;;;;;11.63;1.30;;;19.00;99.90;;;;;;5036396;28;20198;-73
2022/09/22 01:24:18;;;;;;;7.32;1.30;;;18.90;99.90;;;;;;5033629;28;20182;-76
2022/09/22 01:27:23;;;;;;;11.15;1.42;;;18.90;99.90;;;;;;5034644;28;20217;-75
2022/09/22 01:30:20;;;;;;;7.70;1.40;;;18.90;99.90;;;;;;5028243;28;20577;-75
2022/09/22 01:33:04;;;;;;;10.23;1.40;;;18.90;99.90;;;;;;5032903;28;20228;-75
2022/09/22 01:35:41;;;;;;;10.77;1.85;;;18.80;99.90;;;;;;5029659;28;20474;-73
2022/09/22 01:38:16;;;;;;;11.18;2.00;;;18.70;99.90;;;;;;5026100;28;20204;-69
2022/09/22 01:40:53;;;;;;;14.35;1.90;;;18.70;99.90;;;;;;5030024;28;20197;-75
2022/09/22 01:43:32;;;;;;;10.27;1.75;;;18.60;99.90;;;;;;5034202;28;20194;-73
2022/09/22 01:46:09;;;;;;;12.52;1.90;;;18.60;99.90;;;;;;5030690;28;20198;-68
2022/09/22 01:48:43;;;;;;;8.65;1.63;;;18.50;99.90;;;;;;5035973;28;20186;-76
2022/09/22 01:51:18;;;;;;;8.70;1.50;;;18.50;99.90;;;;;;5027402;28;20205;-74
2022/09/22 01:53:53;;;;;;;8.00;1.63;;;18.60;99.90;;;;;;5034071;28;20608;-77
2022/09/22 01:56:26;;;;;;;11.13;1.38;;;18.60;99.90;;;;;;5032747;28;20214;-74
2022/09/22 01:59:00;;;;;;;8.07;1.70;;;18.60;99.90;;;;;;5039564;28;20196;-74
2022/09/22 02:01:37;;;;;;;7.25;1.50;;;18.50;99.90;;;;;;5030048;28;20202;-76
2022/09/22 02:04:12;;;;;;;10.70;3.75;;;18.50;99.90;;;;;;5027522;28;20634;-75
2022/09/22 02:06:48;;;;;;;9.10;1.50;;;18.60;99.90;;;;;;5033189;28;20198;-75
2022/09/22 02:09:20;;;;;;;9.88;2.47;;;18.70;99.90;;;;;;5031317;28;20186;-74
2022/09/22 02:11:51;;;;;;;5.35;1.15;;;18.70;99.90;;;;;;5031537;28;20285;-76
2022/09/22 02:14:22;;;;;;;7.00;1.40;;;18.70;99.90;;;;;;5042605;28;20572;-73
2022/09/22 02:16:56;;;;;;;4.22;1.55;;;18.70;99.90;;;;;;5034068;28;20224;-74
2022/09/22 02:19:30;;;;;;;5.53;1.33;;;18.70;99.90;;;;;;5033785;28;20222;-74
2022/09/22 02:22:01;;;;;;;5.22;1.15;;;18.70;99.90;;;;;;5031874;28;20198;-76
2022/09/22 02:24:34;;;;;;;3.63;1.00;;;18.70;99.90;;;;;;5030777;28;20198;-75
2022/09/22 02:27:08;;;;;;;5.32;1.50;;;18.70;99.90;;;;;;5043706;28;20190;-74
2022/09/22 02:29:41;;;;;;;5.25;1.10;;;18.60;99.90;;;;;;5030000;28;20194;-74
2022/09/22 02:32:17;;;;;;;3.88;1.10;;;18.50;99.90;;;;;;5033909;28;20187;-77
2022/09/22 02:34:48;;;;;;;3.78;1.20;;;18.50;99.90;;;;;;5035632;28;20197;-74
2022/09/22 02:37:25;;;;;;;6.55;1.15;;;18.60;99.90;;;;;;5031071;28;20245;-77
2022/09/22 02:40:07;;;;;;;6.68;1.38;;;18.50;99.90;;;;;;5031010;28;20306;-71
2022/09/22 02:42:42;;;;;;;6.28;1.05;;;18.60;99.90;;;;;;5032584;28;20260;-76
2022/09/22 02:45:19;;;;;;;7.53;1.27;;;18.60;99.90;;;;;;5032362;28;20229;-73
2022/09/22 02:47:56;;;;;;;7.05;1.30;;;18.50;99.90;;;;;;5029883;28;20204;-73
2022/09/22 02:50:29;;;;;;;4.05;1.10;;;18.50;99.90;;;;;;5032082;28;20263;-75
2022/09/22 02:53:03;;;;;;;11.48;1.80;;;18.50;99.90;;;;;;5032181;28;20190;-76
2022/09/22 02:55:34;;;;;;;5.60;1.13;;;18.40;99.90;;;;;;5031978;28;20205;-75
2022/09/22 02:58:05;;;;;;;8.20;1.30;;;18.40;99.90;;;;;;5032165;28;20214;-73
2022/09/22 03:00:36;;;;;;;9.93;1.17;;;18.40;99.90;;;;;;5030870;28;20202;-73
2022/09/22 03:03:09;;;;;;;7.53;1.48;;;18.50;99.90;;;;;;5034963;28;20924;-74
2022/09/22 03:05:40;;;;;;;7.25;1.30;;;18.50;99.90;;;;;;5029733;28;20194;-77
2022/09/22 03:08:11;;;;;;;7.45;1.40;;;18.40;99.90;;;;;;5030475;28;20210;-76
2022/09/22 03:10:42;;;;;;;4.43;1.02;;;18.50;99.90;;;;;;5032129;28;20200;-75
2022/09/22 03:13:12;;;;;;;10.82;4.78;;;18.40;99.90;;;;;;5033407;28;20228;-68
2022/09/22 03:15:43;;;;;;;4.78;1.00;;;18.40;99.90;;;;;;5031932;28;20675;-72
2022/09/22 03:18:16;;;;;;;9.20;1.60;;;18.40;99.90;;;;;;5032736;28;20210;-72
2022/09/22 03:20:47;;;;;;;10.10;2.88;;;18.50;99.90;;;;;;5028200;28;20198;-72
2022/09/22 03:23:18;;;;;;;9.00;1.60;;;18.50;99.90;;;;;;5032923;28;20190;-70
2022/09/22 03:25:49;;;;;;;8.32;1.65;;;18.50;99.90;;;;;;5030197;28;20198;-73
2022/09/22 03:28:20;;;;;;;5.70;1.58;;;18.60;99.90;;;;;;5035789;28;20197;-69
2022/09/22 03:30:51;;;;;;;4.53;1.40;;;18.60;99.90;;;;;;5031075;28;20198;-67
2022/09/22 03:33:24;;;;;;;5.55;1.20;;;18.70;99.90;;;;;;5032865;28;20191;-74
2022/09/22 03:35:55;;;;;;;7.35;1.40;;;18.60;99.90;;;;;;5031705;28;20230;-70
2022/09/22 03:38:26;;;;;;;11.98;1.50;;;18.60;99.90;;;;;;5028503;28;20201;-72
2022/09/22 03:40:57;;;;;;;6.22;1.48;;;18.50;99.90;;;;;;5047017;28;20200;-70
2022/09/22 03:43:28;;;;;;;7.63;1.50;;;18.50;99.90;;;;;;5029311;28;20625;-74
2022/09/22 03:46:03;;;;;;;11.25;1.40;;;18.50;99.90;;;;;;5031223;28;20204;-76
2022/09/22 03:48:36;;;;;;;5.13;1.40;;;18.50;99.90;;;;;;5032898;28;20194;-70
2022/09/22 03:51:06;;;;;;;7.65;1.63;;;18.50;99.90;;;;;;5041434;28;20209;-73
2022/09/22 03:53:38;;;;;;;9.00;1.60;;;18.60;99.90;;;;;;5033215;28;20194;-71
2022/09/22 03:56:10;;;;;;;5.22;1.10;;;18.50;99.90;;;;;;5034902;28;20198;-68
2022/09/22 03:58:41;;;;;;;9.82;1.40;;;18.50;99.90;;;;;;5034948;28;20202;-72
2022/09/22 04:01:13;;;;;;;7.13;1.20;;;18.50;99.90;;;;;;5036952;28;20193;-73
2022/09/22 04:03:45;;;;;;;8.75;1.30;;;18.40;99.90;;;;;;5033873;28;20193;-75
2022/09/22 04:06:16;;;;;;;7.97;1.40;;;18.50;99.90;;;;;;5034900;28;20208;-75
2022/09/22 04:08:47;;;;;;;8.60;1.35;;;18.40;99.90;;;;;;5033117;28;20672;-73
2022/09/22 04:11:18;;;;;;;7.70;1.58;;;18.50;99.90;;;;;;5047993;28;20194;-74
2022/09/22 04:13:48;;;;;;;6.50;1.48;;;18.40;99.90;;;;;;5036017;28;20679;-75
2022/09/22 04:16:19;;;;;;;9.00;1.48;;;18.40;99.90;;;;;;5036488;28;20194;-74
2022/09/22 04:18:52;;;;;;;9.88;1.60;;;18.40;99.90;;;;;;5041111;28;20194;-73
2022/09/22 04:21:23;;;;;;;7.93;1.40;;;18.40;99.90;;;;;;5045547;28;20197;-74
2022/09/22 04:23:53;;;;;;;10.70;1.48;;;18.40;99.90;;;;;;5056680;28;20223;-71
2022/09/22 04:26:24;;;;;;;9.23;1.60;;;18.30;99.90;;;;;;5039331;28;20198;-68
2022/09/22 04:28:55;;;;;;;9.00;1.50;;;18.40;99.90;;;;;;5033396;28;20577;-75
2022/09/22 04:31:26;;;;;;;9.88;2.05;;;18.40;99.90;;;;;;5034825;28;20209;-74
2022/09/22 04:33:58;;;;;;;6.30;1.25;;;18.50;99.90;;;;;;5034055;28;20204;-75
2022/09/22 04:36:29;;;;;;;8.50;1.27;;;18.50;99.90;;;;;;5034398;28;20230;-74
2022/09/22 04:39:03;;;;;;;6.22;1.50;;;18.50;99.90;;;;;;5031398;28;20681;-75
2022/09/22 04:41:33;;;;;;;6.70;1.25;;;18.60;99.90;;;;;;5033281;28;21120;-74
2022/09/22 04:44:04;;;;;;;8.70;1.40;;;18.50;99.90;;;;;;5033209;28;20195;-72
2022/09/22 04:46:35;;;;;;;9.10;1.27;;;18.50;99.90;;;;;;5041941;28;20216;-76
2022/09/22 04:49:07;;;;;;;8.25;1.65;;;18.40;99.90;;;;;;5038327;28;20216;-75
2022/09/22 04:51:38;;;;;;;6.15;1.50;;;18.30;99.90;;;;;;5035504;28;20194;-78
2022/09/22 04:54:09;;;;;;;5.40;1.15;;;18.30;99.90;;;;;;5026366;28;20276;-78
2022/09/22 04:56:40;;;;;;;6.57;1.30;;;18.30;99.90;;;;;;5032261;28;20205;-76
2022/09/22 04:59:10;;;;;;;7.70;1.35;;;18.30;99.90;;;;;;5035339;28;20197;-76
2022/09/22 05:01:41;;;;;;;10.13;1.45;;;18.20;99.90;;;;;;5034537;28;20198;-76
2022/09/22 05:04:14;;;;;;;4.05;1.33;;;18.20;99.90;;;;;;5033810;28;20214;-75
2022/09/22 05:06:44;;;;;;;7.05;1.40;;;18.30;99.90;;;;;;5038813;28;20193;-76
2022/09/22 05:09:15;;;;;;;8.68;1.48;;;18.30;99.90;;;;;;5054676;28;20196;-76
2022/09/22 05:11:47;;;;;;;7.10;2.45;;;18.30;99.90;;;;;;5042051;28;20190;-77
2022/09/22 05:14:18;;;;;;;9.30;1.60;;;18.20;99.90;;;;;;5035813;28;20601;-76
2022/09/22 05:16:49;;;;;;;9.70;1.30;;;18.30;99.90;;;;;;5035533;28;20214;-76
2022/09/22 05:19:22;;;;;;;9.30;1.40;;;18.20;99.90;;;;;;5035449;28;20550;-76
2022/09/22 05:21:53;;;;;;;10.95;1.42;;;18.30;99.90;;;;;;5037586;28;20195;-77
2022/09/22 05:24:23;;;;;;;11.23;1.83;;;18.30;99.90;;;;;;5051593;28;20244;-75
2022/09/22 05:26:54;;;;;;;9.27;1.63;;;18.30;99.90;;;;;;5055257;28;20193;-75
2022/09/22 05:29:26;;;;;;;7.13;1.58;;;18.30;99.90;;;;;;5055535;28;20201;-75
2022/09/22 05:31:57;;;;;;;11.43;1.60;;;18.20;99.90;;;;;;5039461;28;20269;-76
2022/09/22 05:34:30;;;;;;;8.30;1.55;;;18.20;99.90;;;;;;5050838;28;20197;-75
2022/09/22 05:37:01;;;;;;;8.73;1.65;;;18.20;99.90;;;;;;5038021;28;20291;-72
2022/09/22 05:39:32;;;;;;;9.88;1.40;;;18.10;99.90;;;;;;5037935;28;20190;-69
2022/09/22 05:42:02;;;;;;;7.88;1.23;;;18.10;99.90;;;;;;5035283;28;20542;-68
2022/09/22 05:44:33;;;;;;;11.88;1.70;;;18.10;99.90;;;;;;5035245;28;20190;-70
2022/09/22 05:47:04;;;;;;;6.38;1.38;;;18.10;99.90;;;;;;5035164;28;20194;-69
2022/09/22 05:49:36;;;;;;;8.13;1.40;;;18.10;99.90;;;;;;5035092;28;20210;-69
2022/09/22 05:52:07;;;;;;;6.05;1.50;;;18.10;99.90;;;;;;5034953;28;20191;-68
2022/09/22 05:54:38;;;;;;;7.40;1.80;;;18.10;99.90;;;;;;5035012;28;20198;-69
2022/09/22 05:57:08;;;;;;;5.18;1.40;;;18.10;99.90;;;;;;5034719;28;20214;-69
2022/09/22 05:59:39;;;;;;;7.97;1.50;;;18.00;99.90;;;;;;5036878;28;20213;-69
2022/09/22 06:02:11;;;;;;;10.18;1.90;;;18.00;99.90;;;;;;5039789;28;20196;-69
2022/09/22 06:04:44;;;;;;;7.72;1.60;;;18.00;99.90;;;;;;5034519;28;20660;-72
2022/09/22 06:07:15;;;;;;;6.13;1.40;;;17.90;99.90;;;;;;5034795;28;20201;-69
2022/09/22 06:09:45;;;;;;;6.22;1.30;;;17.90;99.90;;;;;;5037214;28;20187;-71
2022/09/22 06:12:16;;;;;;;6.55;1.50;;;17.80;99.90;;;;;;5044465;28;20193;-71
2022/09/22 06:14:47;;;;;;;7.63;1.38;;;17.70;99.90;;;;;;5050354;28;20194;-68
2022/09/22 06:17:18;;;;;;;7.85;1.30;;;17.70;99.90;;;;;;5054101;28;20224;-68
2022/09/22 06:19:50;;;;;;;5.53;1.52;;;17.70;99.90;;;;;;5054400;28;20193;-77
2022/09/22 06:22:22;;;;;;;7.45;1.50;;;17.70;99.90;;;;;;5047972;28;20190;-71
2022/09/22 06:24:53;;;;;;;7.93;1.23;;;17.70;99.90;;;;;;5048653;28;20519;-68
2022/09/22 06:27:23;;;;;;;7.35;1.80;;;17.60;99.90;;;;;;5038230;28;20539;-75
2022/09/22 06:29:54;;;;;;;9.43;2.25;;;17.70;99.90;;;;;;5034304;28;20201;-67
2022/09/22 06:32:25;;;;;;;7.38;1.60;;;17.70;99.90;;;;;;5034184;28;20289;-68
2022/09/22 06:35:01;;;;;;;8.40;1.65;;;17.70;99.90;;;;;;5033570;28;20218;-68
2022/09/22 06:37:32;;;;;;;6.03;1.60;;;17.70;99.90;;;;;;5033527;28;20675;-68
2022/09/22 06:40:03;;;;;;;4.40;1.35;;;17.70;99.90;;;;;;5045139;28;20201;-69
2022/09/22 06:42:33;;;;;;;8.15;1.75;;;17.70;99.90;;;;;;5053999;28;20185;-67
2022/09/22 06:45:04;;;;;;;8.23;1.23;;;17.70;99.90;;;;;;5053943;28;20273;-68
2022/09/22 06:47:35;;;;;;;9.05;1.58;;;17.70;99.90;;;;;;5053738;28;20193;-69
2022/09/22 06:50:08;;;;;;;6.93;1.13;;;17.60;99.90;;;;;;5051865;28;20181;-67
2022/09/22 06:52:39;;;;;;;10.00;1.33;;;17.60;99.90;;;;;;5052569;28;20198;-68
2022/09/22 06:55:11;;;;;;;8.55;1.38;;;17.60;99.90;;;;;;5039403;28;20194;-71
2022/09/22 06:57:42;;;;;;;10.02;1.30;;;17.60;99.90;;;;;;5032089;28;20214;-69
2022/09/22 07:00:15;;;;;;;6.43;1.10;;;17.50;99.90;;;;;;5034206;28;20199;-77
2022/09/22 07:02:46;;;;;;;6.47;1.38;;;17.50;99.90;;;;;;5033592;28;20194;-76
2022/09/22 07:05:19;;;;;;;9.43;1.48;;;17.40;99.90;;;;;;5032704;28;20191;-75
2022/09/22 07:07:50;;;;;;;10.85;1.92;;;17.40;99.90;;;;;;5033633;28;20260;-75
2022/09/22 07:10:21;;;;;;;7.63;1.27;;;17.40;99.90;;;;;;5037132;28;20194;-72
2022/09/22 07:12:52;;;;;;;8.20;1.15;;;17.40;99.90;;;;;;5053252;28;20185;-74
2022/09/22 07:15:22;;;;;;;7.97;1.55;;;17.40;99.90;;;;;;5053161;28;20196;-73
2022/09/22 07:17:55;;;;;;;8.25;1.20;;;17.40;99.90;;;;;;5036818;28;20213;-71
2022/09/22 07:20:27;;;;;;;12.00;1.63;;;17.30;99.90;;;;;;5048385;28;20189;-75
2022/09/22 07:22:59;;;;;;;8.77;1.50;;;17.30;99.90;;;;;;5053416;28;20276;-73
2022/09/22 07:25:32;;;;;;;9.38;1.40;;;17.30;99.90;;;;;;5050317;28;20653;-70
2022/09/22 07:28:05;;;;;;;6.93;1.50;;;17.30;99.90;;;;;;5032304;28;20198;-77
2022/09/22 07:30:39;;;;;;;9.48;1.70;;;17.30;99.90;;;;;;5031720;28;20573;-69
2022/09/22 07:33:09;;;;;;;8.85;1.58;;;17.30;99.90;;;;;;5033340;28;20290;-68
2022/09/22 07:35:42;;;;;;;13.15;2.33;;;17.30;99.90;;;;;;5032732;28;20213;-68
2022/09/22 07:38:12;;;;;;;9.02;2.60;;;17.30;99.90;;;;;;5033092;28;20221;-69
2022/09/22 07:40:53;;;;;;;11.65;2.38;;;17.20;99.90;;;;;;5032458;28;20615;-69
2022/09/22 07:43:26;;;;;;;10.98;2.30;;;17.20;99.90;;;;;;5013462;28;20273;-68
2022/09/22 07:45:58;;;;;;;8.50;2.30;;;17.20;99.90;;;;;;5039516;28;20199;-75
2022/09/22 07:48:41;;;;;;;11.68;2.08;;;17.20;99.90;;;;;;5033200;28;20194;-69
2022/09/22 07:51:17;;;;;;;9.77;1.90;;;17.20;99.90;;;;;;5027647;28;20290;-69
2022/09/22 07:53:48;;;;;;;10.90;1.83;;;17.10;99.90;;;;;;5032509;28;20205;-69
2022/09/22 07:56:21;;;;;;;12.45;1.80;;;17.00;99.90;;;;;;5030064;28;20194;-68
2022/09/22 07:58:52;;;;;;;8.23;1.90;;;16.90;99.90;;;;;;5013425;28;20305;-68
2022/09/22 08:01:25;;;;;;;7.72;1.75;;;16.90;99.90;;;;;;5013216;28;20187;-68
2022/09/22 08:03:57;;;;;;;12.00;1.70;;;16.80;99.90;;;;;;5017645;28;20201;-68
2022/09/22 08:06:30;;;;;;;7.30;1.67;;;16.80;99.90;;;;;;5033023;28;20213;-68
2022/09/22 08:09:03;;;;;;;7.65;1.80;;;16.80;99.90;;;;;;5033001;28;20200;-73
2022/09/22 08:11:34;;;;;;;7.25;1.45;;;16.80;99.90;;;;;;5032983;28;20651;-74
2022/09/22 08:14:07;;;;;;;8.00;1.33;;;16.70;99.90;;;;;;5038273;28;20243;-75
2022/09/22 08:16:39;;;;;;;5.72;2.08;;;16.70;99.90;;;;;;5030875;28;20205;-75
2022/09/22 08:19:11;;;;;;;6.75;1.20;;;16.70;99.90;;;;;;5035126;28;20222;-68
2022/09/22 08:21:45;;;;;;;5.20;1.50;;;16.70;99.90;;;;;;5031448;28;20190;-67
2022/09/22 08:24:19;;;;;;;8.38;1.40;;;16.60;99.90;;;;;;5032787;28;20198;-68
2022/09/22 08:26:51;;;;;;;6.45;1.30;;;16.50;99.90;;;;;;5032814;28;20229;-68
2022/09/22 08:29:22;;;;;;;3.63;1.13;;;16.40;99.90;;;;;;5032432;28;20248;-67
2022/09/22 08:31:53;;;;;;;4.40;1.20;;;16.40;99.90;;;;;;5036714;28;20280;-68
2022/09/22 08:34:24;;;;;;;5.22;1.58;;;16.40;99.90;;;;;;5050196;28;20569;-68
2022/09/22 08:36:56;;;;;;;6.85;1.60;;;16.40;99.90;;;;;;5033322;28;20241;-68
2022/09/22 08:39:27;;;;;;;5.13;1.50;;;16.40;99.90;;;;;;5033859;28;20214;-68
2022/09/22 08:42:11;;;;;;;6.15;1.90;;;16.30;99.90;;;;;;5039362;28;20685;-68
2022/09/22 08:44:50;;;;;;;4.78;1.40;;;16.30;99.90;;;;;;5043582;28;20555;-67
2022/09/22 08:51:50;;;;;;;6.75;1.50;;;16.30;99.90;;;;;;5037509;28;20256;-69
2022/09/22 08:53:17;;;;;;;3.17;0.98;;;16.30;99.90;;;;;;5034434;28;20288;-75
2022/09/22 08:55:56;;;;;;;3.65;1.20;;;16.30;99.90;;;;;;5035985;28;20190;-75
2022/09/22 08:58:39;;;;;;;5.57;1.40;;;16.40;99.90;;;;;;5036022;28;20228;-77
2022/09/22 09:01:22;;;;;;;5.10;1.02;;;16.40;99.90;;;;;;5049910;28;20189;-73
2022/09/22 09:04:01;;;;;;;5.03;0.95;;;16.40;99.90;;;;;;5016076;28;20191;-74
2022/09/22 09:06:39;;;;;;;5.65;0.80;;;16.40;99.90;;;;;;5036764;28;20277;-74
2022/09/22 09:09:26;;;;;;;5.43;1.05;;;16.40;99.90;;;;;;5042135;28;20198;-74
2022/09/22 09:12:21;;;;;;;3.22;1.10;;;16.40;99.90;;;;;;5033426;28;20646;-70
2022/09/22 09:15:15;;;;;;;2.63;0.80;;;16.40;99.90;;;;;;5046167;28;20560;-73
2022/09/22 09:17:49;;;;;;;4.50;0.80;;;16.40;99.90;;;;;;5037728;28;20191;-74
2022/09/22 09:20:23;;;;;;;4.55;1.20;;;16.40;99.90;;;;;;5035626;28;20194;-75
2022/09/22 09:22:55;;;;;;;3.70;1.10;;;16.40;99.90;;;;;;5032153;28;20204;-77
2022/09/22 09:25:34;;;;;;;4.68;1.08;;;16.40;99.90;;;;;;5035243;28;20187;-70
2022/09/22 09:28:08;;;;;;;4.50;1.00;;;16.30;99.90;;;;;;5034369;28;20260;-70
2022/09/22 09:30:46;;;;;;;2.40;0.90;;;16.30;99.90;;;;;;5034571;28;20209;-72
2022/09/22 09:33:30;;;;;;;2.85;1.00;;;16.40;99.90;;;;;;5033775;28;20194;-74
2022/09/22 09:36:01;;;;;;;2.85;0.80;;;16.30;99.90;;;;;;5033743;28;20284;-73
2022/09/22 09:38:35;;;;;;;3.30;1.05;;;16.30;99.90;;;;;;5034248;28;20579;-71
2022/09/22 09:41:15;;;;;;;4.93;1.45;;;16.30;99.90;;;;;;5033241;28;20264;-76
2022/09/22 09:43:46;;;;;;;8.32;1.63;;;16.30;99.90;;;;;;5035057;28;20193;-76
2022/09/22 09:46:25;;;;;;;5.65;1.40;;;16.30;99.90;;;;;;5038862;28;20542;-73
2022/09/22 09:49:08;;;;;;;2.88;1.17;;;16.30;99.90;;;;;;5034308;28;20202;-70
2022/09/22 09:51:41;;;;;;;8.95;1.50;;;16.30;99.90;;;;;;5028410;28;20224;-68
2022/09/22 09:54:13;;;;;;;3.58;1.48;;;16.30;99.90;;;;;;5029057;28;20201;-69
2022/09/22 09:57:07;;;;;;;5.75;1.70;;;16.30;99.90;;;;;;5037267;28;20190;-69
2022/09/22 10:02:28;;;;;;;5.15;1.30;;;16.30;99.90;;;;;;5035047;28;20189;-68
2022/09/22 10:05:02;;;;;;;4.68;1.20;;;16.30;99.90;;;;;;5036761;28;20202;-70
2022/09/22 10:07:41;;;;;;;5.45;1.20;;;16.30;99.90;;;;;;5034039;28;20208;-71
2022/09/22 10:10:36;;;;;;;7.40;1.42;;;16.30;99.90;;;;;;5034132;28;20700;-69
2022/09/22 10:13:31;;;;;;;7.65;1.50;;;16.30;99.90;;;;;;5019056;28;20182;-70
2022/09/22 10:16:26;;;;;;;5.30;1.30;;;16.30;99.90;;;;;;5031561;28;20198;-69
2022/09/22 10:19:17;;;;;;;4.78;1.30;;;16.30;99.90;;;;;;5024235;28;20234;-69
2022/09/22 10:21:48;;;;;;;7.43;1.30;;;16.30;99.90;;;;;;5030634;28;20194;-72
2022/09/22 10:24:33;;;;;;;9.10;1.52;;;16.30;99.90;;;;;;5044019;28;20660;-70
2022/09/22 10:27:04;;;;;;;6.05;1.20;;;16.30;99.90;;;;;;5032996;28;20639;-68
2022/09/22 10:29:40;;;;;;;4.90;1.08;;;16.30;99.90;;;;;;5033162;28;20196;-68
2022/09/22 10:32:18;;;;;;;5.20;1.38;;;16.30;99.90;;;;;;5033205;28;20198;-68
2022/09/22 10:34:49;;;;;;;7.55;1.20;;;16.40;99.90;;;;;;5033331;28;20213;-69
2022/09/22 10:37:26;;;;;;;6.47;1.20;;;16.40;99.90;;;;;;5033485;28;20759;-69
2022/09/22 10:40:03;;;;;;;5.80;1.20;;;16.40;99.90;;;;;;5033307;28;20217;-68
2022/09/22 10:42:39;;;;;;;6.65;1.45;;;16.40;99.90;;;;;;5033156;28;20198;-68
2022/09/22 10:45:15;;;;;;;5.57;1.20;;;16.40;99.90;;;;;;5033809;28;20194;-68
2022/09/22 10:47:56;;;;;;;6.60;1.40;;;16.40;99.90;;;;;;5033548;28;20548;-70
2022/09/22 10:50:56;;;;;;;5.50;1.38;;;16.50;99.90;;;;;;5027525;28;20230;-68
2022/09/22 10:53:39;;;;;;;5.07;1.40;;;16.40;99.90;;;;;;5031573;28;20190;-68
2022/09/22 10:56:19;;;;;;;3.30;1.33;;;16.40;99.90;;;;;;5033498;28;20193;-70
2022/09/22 10:59:20;;;;;;;4.25;1.20;;;16.30;99.90;;;;;;5032806;28;20218;-74
2022/09/22 11:02:04;;;;;;;5.68;1.30;;;16.20;99.90;;;;;;5031663;28;20209;-69
2022/09/22 11:04:52;;;;;;;2.17;1.05;;;16.20;99.90;;;;;;5032385;28;20198;-68
2022/09/22 11:13:33;;;;;;;3.60;0.93;;;16.20;99.90;;;;;;5034486;28;20212;-68
2022/09/22 11:16:43;;;;;;;5.93;1.35;;;16.20;99.90;;;;;;5032979;28;20187;-71
2022/09/22 11:19:38;;;;;;;3.95;1.40;;;16.10;99.90;;;;;;5031914;28;20253;-67
2022/09/22 11:22:27;;;;;;;5.07;1.35;;;16.10;99.90;;;;;;5031817;28;20583;-73
2022/09/22 11:25:08;;;;;;;11.35;4.82;;;16.10;99.90;;;;;;5031531;28;20194;-72
2022/09/22 11:27:50;;;;;;;8.50;3.70;;;16.10;99.90;;;;;;5030923;28;20209;-73
2022/09/22 11:30:21;;;;;;;4.68;1.60;;;16.00;99.90;;;;;;5029460;28;20198;-71
2022/09/22 11:33:18;;;;;;;4.97;1.60;;;16.00;99.90;;;;;;5032436;28;20734;-75
2022/09/22 11:36:14;;;;;;;4.75;1.50;;;15.90;99.90;;;;;;5028698;28;20656;-68
2022/09/22 11:39:30;;;;;;;4.72;1.45;;;15.90;99.90;;;;;;5024980;28;20280;-68
2022/09/22 11:42:10;;;;;;;4.70;1.10;;;15.90;99.90;;;;;;5005065;28;20229;-68
2022/09/22 11:44:51;;;;;;;5.97;1.42;;;15.90;99.90;;;;;;5029748;28;20198;-67
2022/09/22 11:47:52;;;;;;;5.63;1.35;;;15.90;99.90;;;;;;5031302;28;20190;-68
2022/09/22 11:50:38;;;;;;;5.93;1.55;;;15.90;99.90;;;;;;5028945;28;20194;-69
2022/09/22 11:53:45;;;;;;;4.88;1.60;;;15.90;99.90;;;;;;5030014;28;20769;-68
2022/09/22 11:56:42;;;;;;;6.00;1.77;;;15.90;99.90;;;;;;5027983;28;20740;-68
2022/09/22 11:59:24;;;;;;;4.80;1.70;;;15.80;99.90;;;;;;5031107;28;20237;-69
2022/09/22 12:01:58;;;;;;;7.03;1.55;;;15.80;99.90;;;;;;5031218;28;20217;-75
2022/09/22 12:04:36;;;;;;;5.13;1.33;;;15.80;99.90;;;;;;5031982;28;20209;-73
2022/09/22 12:07:15;;;;;;;5.55;1.30;;;15.80;99.90;;;;;;5029760;28;20206;-70
2022/09/22 12:09:51;;;;;;;5.63;1.35;;;15.80;99.90;;;;;;5028699;28;20244;-73
2022/09/22 12:12:25;;;;;;;3.75;1.40;;;15.80;99.90;;;;;;5032480;28;20618;-71
2022/09/22 12:15:08;;;;;;;5.13;1.30;;;15.80;99.90;;;;;;5035571;28;20205;-68
2022/09/22 12:17:48;;;;;;;4.25;1.33;;;15.90;99.90;;;;;;5032059;28;20201;-72
2022/09/22 12:20:36;;;;;;;7.47;1.33;;;15.80;99.90;;;;;;5022243;28;20220;-69
2022/09/22 12:23:21;;;;;;;6.43;1.05;;;15.80;99.90;;;;;;5036041;28;20214;-70
2022/09/22 12:25:55;;;;;;;4.28;1.23;;;15.80;99.90;;;;;;5035961;28;20202;-70
2022/09/22 12:28:30;;;;;;;3.83;1.30;;;15.80;99.90;;;;;;5036256;28;20217;-69
2022/09/22 12:31:11;;;;;;;4.97;1.20;;;15.80;99.90;;;;;;5035774;28;20194;-71
2022/09/22 12:33:48;;;;;;;5.47;1.25;;;15.80;99.90;;;;;;5035115;28;20259;-75
2022/09/22 12:36:30;;;;;;;4.65;1.48;;;15.80;99.90;;;;;;5034900;28;20229;-71
2022/09/22 12:39:16;;;;;;;3.70;1.20;;;15.80;99.90;;;;;;5033323;28;20238;-68
2022/09/22 12:41:51;;;;;;;5.15;1.50;;;15.80;99.90;;;;;;5028617;28;20191;-73
2022/09/22 12:44:26;;;;;;;5.72;1.55;;;15.80;99.90;;;;;;5034734;28;20201;-74
2022/09/22 12:47:03;;;;;;;4.60;1.35;;;15.80;99.90;;;;;;5033253;28;20708;-69
2022/09/22 12:49:34;;;;;;;5.47;1.50;;;15.80;99.90;;;;;;5029756;28;20673;-71
2022/09/22 12:52:25;;;;;;;3.85;1.65;;;15.80;99.90;;;;;;5034452;28;20190;-69
2022/09/22 12:55:19;;;;;;;4.40;1.40;;;15.80;99.90;;;;;;5030315;28;20289;-68
2022/09/22 12:57:51;;;;;;;7.88;1.85;;;15.80;99.90;;;;;;5033035;28;20741;-69
2022/09/22 13:00:28;;;;;;;4.47;1.90;;;15.80;99.90;;;;;;5030293;28;20217;-69
2022/09/22 13:02:59;;;;;;;7.00;2.00;;;15.80;99.90;;;;;;5032701;28;20286;-70
2022/09/22 13:05:43;;;;;;;4.53;1.73;;;15.80;99.90;;;;;;5033177;28;20190;-68
2022/09/22 13:08:48;;;;;;;5.65;1.95;;;15.80;99.90;;;;;;5032948;28;20202;-70
2022/09/22 13:11:18;;;;;;;4.68;1.52;;;15.90;99.90;;;;;;5028587;28;20579;-69
2022/09/22 13:13:51;;;;;;;5.97;1.65;;;15.80;99.90;;;;;;5029050;28;20199;-69
2022/09/22 13:16:37;;;;;;;4.03;1.42;;;15.80;99.90;;;;;;5031637;28;20225;-69
2022/09/22 13:19:11;;;;;;;5.18;1.23;;;15.90;99.90;;;;;;5032060;28;20194;-69
2022/09/22 13:21:42;;;;;;;4.82;1.45;;;15.90;99.90;;;;;;5029444;28;20243;-70
2022/09/22 13:24:23;;;;;;;3.53;1.20;;;15.80;99.90;;;;;;5034519;28;20198;-69
2022/09/22 13:27:07;;;;;;;4.50;1.50;;;15.90;99.90;;;;;;5033805;28;20233;-67
2022/09/22 13:29:38;;;;;;;6.90;1.63;;;15.90;99.90;;;;;;5032778;28;20572;-68
2022/09/22 13:32:25;;;;;;;3.88;1.48;;;15.90;99.90;;;;;;5034159;28;20198;-68
2022/09/22 13:34:56;;;;;;;5.75;1.50;;;15.90;99.90;;;;;;5031933;28;20229;-68
2022/09/22 13:37:27;;;;;;;5.03;1.60;;;15.90;99.90;;;;;;5031235;28;20599;-69
2022/09/22 13:39:59;;;;;;;7.03;1.95;;;15.90;99.90;;;;;;5035291;28;20220;-68
2022/09/22 13:42:32;;;;;;;4.03;1.40;;;15.90;99.90;;;;;;5032789;28;20201;-67